sensor_id;sensor_type;location;lat;lon;timestamp;temperature;humidity
4795;DHT22;2411;47.060;15.064;2023-06-04T00:02:26;12.70;1.00
4795;DHT22;2411;47.060;15.064;2023-06-04T00:04:54;12.60;1.00
4795;DHT22;2411;47.060;15.064;2023-06-04T00:07:21;12.60;1.00
4795;DHT22;2411;47.060;15.064;2023-06-04T00:09:48;12.60;1.00
4795;DHT22;2411;47.060;15.064;2023-06-04T00:12:16;12.60;1.00
4795;DHT22;2411;47.060;15.064;2023-06-04T00:14:43;12.50;1.00
4795;DHT22;2411;47.060;15.064;2023-06-04T00:17:11;12.40;1.00
4795;DHT22;2411;47.060;15.064;2023-06-04T00:19:39;12.40;1.00
4795;DHT22;2411;47.060;15.064;2023-06-04T00:22:08;12.40;1.00
4795;DHT22;2411;47.060;15.064;2023-06-04T00:24:36;12.50;1.00
4795;DHT22;2411;47.060;15.064;2023-06-04T00:27:04;12.50;1.00
4795;DHT22;2411;47.060;15.064;2023-06-04T00:29:32;12.50;1.00
4795;DHT22;2411;47.060;15.064;2023-06-04T00:31:59;12.60;1.00
4795;DHT22;2411;47.060;15.064;2023-06-04T00:34:27;12.60;1.00
4795;DHT22;2411;47.060;15.064;2023-06-04T00:36:54;12.60;1.00
4795;DHT22;2411;47.060;15.064;2023-06-04T00:39:21;12.60;1.00
4795;DHT22;2411;47.060;15.064;2023-06-04T00:41:49;12.50;1.00
4795;DHT22;2411;47.060;15.064;2023-06-04T00:44:16;12.50;1.00
4795;DHT22;2411;47.060;15.064;2023-06-04T00:46:44;12.40;1.00
4795;DHT22;2411;47.060;15.064;2023-06-04T00:49:12;12.20;1.00
4795;DHT22;2411;47.060;15.064;2023-06-04T00:51:40;12.30;1.00
4795;DHT22;2411;47.060;15.064;2023-06-04T00:54:07;12.30;1.00
4795;DHT22;2411;47.060;15.064;2023-06-04T00:56:38;12.20;1.00
4795;DHT22;2411;47.060;15.064;2023-06-04T00:59:07;12.10;1.00
4795;DHT22;2411;47.060;15.064;2023-06-04T01:04:27;12.10;1.00
4795;DHT22;2411;47.060;15.064;2023-06-04T01:06:57;12.20;1.00
4795;DHT22;2411;47.060;15.064;2023-06-04T01:09:27;12.30;1.00
4795;DHT22;2411;47.060;15.064;2023-06-04T01:11:55;12.20;1.00
4795;DHT22;2411;47.060;15.064;2023-06-04T01:14:25;12.30;1.00
4795;DHT22;2411;47.060;15.064;2023-06-04T01:16:57;12.30;1.00
4795;DHT22;2411;47.060;15.064;2023-06-04T01:25:14;12.50;1.00
4795;DHT22;2411;47.060;15.064;2023-06-04T01:27:51;12.60;1.00
4795;DHT22;2411;47.060;15.064;2023-06-04T01:30:30;12.60;1.00
4795;DHT22;2411;47.060;15.064;2023-06-04T01:32:59;12.60;1.00
4795;DHT22;2411;47.060;15.064;2023-06-04T01:35:28;12.60;1.00
4795;DHT22;2411;47.060;15.064;2023-06-04T01:37:58;12.60;1.00
4795;DHT22;2411;47.060;15.064;2023-06-04T01:40:25;12.50;1.00
4795;DHT22;2411;47.060;15.064;2023-06-04T01:42:54;12.50;1.00
4795;DHT22;2411;47.060;15.064;2023-06-04T01:45:25;12.50;1.00
4795;DHT22;2411;47.060;15.064;2023-06-04T01:47:53;12.50;1.00
4795;DHT22;2411;47.060;15.064;2023-06-04T01:50:21;12.50;1.00
4795;DHT22;2411;47.060;15.064;2023-06-04T01:52:48;12.60;1.00
4795;DHT22;2411;47.060;15.064;2023-06-04T01:55:17;12.60;1.00
4795;DHT22;2411;47.060;15.064;2023-06-04T01:57:45;12.40;1.00
4795;DHT22;2411;47.060;15.064;2023-06-04T02:00:14;12.30;1.00
4795;DHT22;2411;47.060;15.064;2023-06-04T02:02:44;12.20;1.00
4795;DHT22;2411;47.060;15.064;2023-06-04T02:05:22;12.20;1.00
4795;DHT22;2411;47.060;15.064;2023-06-04T02:07:50;12.20;1.00
4795;DHT22;2411;47.060;15.064;2023-06-04T02:10:19;12.30;1.00
4795;DHT22;2411;47.060;15.064;2023-06-04T02:13:13;12.20;1.00
4795;DHT22;2411;47.060;15.064;2023-06-04T02:15:41;12.10;1.00
4795;DHT22;2411;47.060;15.064;2023-06-04T02:18:19;12.00;1.00
4795;DHT22;2411;47.060;15.064;2023-06-04T02:20:49;11.90;1.00
4795;DHT22;2411;47.060;15.064;2023-06-04T02:23:18;11.90;1.00
4795;DHT22;2411;47.060;15.064;2023-06-04T02:25:46;11.80;1.00
4795;DHT22;2411;47.060;15.064;2023-06-04T02:28:15;11.90;1.00
4795;DHT22;2411;47.060;15.064;2023-06-04T02:30:44;11.80;1.00
4795;DHT22;2411;47.060;15.064;2023-06-04T02:33:13;11.80;1.00
4795;DHT22;2411;47.060;15.064;2023-06-04T02:35:41;11.80;1.00
4795;DHT22;2411;47.060;15.064;2023-06-04T02:38:08;11.80;1.00
4795;DHT22;2411;47.060;15.064;2023-06-04T02:40:35;11.90;1.00
4795;DHT22;2411;47.060;15.064;2023-06-04T02:43:03;11.80;1.00
4795;DHT22;2411;47.060;15.064;2023-06-04T02:45:30;11.70;1.00
4795;DHT22;2411;47.060;15.064;2023-06-04T02:47:57;11.80;1.00
4795;DHT22;2411;47.060;15.064;2023-06-04T02:50:25;11.70;1.00
4795;DHT22;2411;47.060;15.064;2023-06-04T02:52:52;11.70;1.00
4795;DHT22;2411;47.060;15.064;2023-06-04T02:55:19;11.60;1.00
4795;DHT22;2411;47.060;15.064;2023-06-04T02:57:47;11.70;1.00
4795;DHT22;2411;47.060;15.064;2023-06-04T03:00:14;11.70;1.00
4795;DHT22;2411;47.060;15.064;2023-06-04T03:02:44;11.50;1.00
4795;DHT22;2411;47.060;15.064;2023-06-04T03:05:13;11.60;1.00
4795;DHT22;2411;47.060;15.064;2023-06-04T03:07:42;11.50;1.00
4795;DHT22;2411;47.060;15.064;2023-06-04T03:10:12;11.60;1.00
4795;DHT22;2411;47.060;15.064;2023-06-04T03:12:39;11.60;1.00
4795;DHT22;2411;47.060;15.064;2023-06-04T03:15:07;11.60;1.00
4795;DHT22;2411;47.060;15.064;2023-06-04T03:17:35;11.60;1.00
4795;DHT22;2411;47.060;15.064;2023-06-04T03:20:03;11.50;1.00
4795;DHT22;2411;47.060;15.064;2023-06-04T03:22:34;11.60;1.00
4795;DHT22;2411;47.060;15.064;2023-06-04T03:25:04;11.60;1.00
4795;DHT22;2411;47.060;15.064;2023-06-04T03:27:32;11.60;1.00
4795;DHT22;2411;47.060;15.064;2023-06-04T03:30:18;11.60;1.00
4795;DHT22;2411;47.060;15.064;2023-06-04T03:33:03;11.70;1.00
4795;DHT22;2411;47.060;15.064;2023-06-04T03:35:53;11.70;1.00
4795;DHT22;2411;47.060;15.064;2023-06-04T03:38:21;11.70;1.00
4795;DHT22;2411;47.060;15.064;2023-06-04T03:40:48;11.70;1.00
4795;DHT22;2411;47.060;15.064;2023-06-04T03:43:16;11.80;1.00
4795;DHT22;2411;47.060;15.064;2023-06-04T03:45:43;11.90;1.00
4795;DHT22;2411;47.060;15.064;2023-06-04T03:48:10;11.90;1.00
4795;DHT22;2411;47.060;15.064;2023-06-04T03:50:38;11.90;1.00
4795;DHT22;2411;47.060;15.064;2023-06-04T03:53:05;12.00;1.00
4795;DHT22;2411;47.060;15.064;2023-06-04T03:55:33;12.10;1.00
4795;DHT22;2411;47.060;15.064;2023-06-04T03:58:00;12.10;1.00
4795;DHT22;2411;47.060;15.064;2023-06-04T04:00:27;12.20;1.00
4795;DHT22;2411;47.060;15.064;2023-06-04T04:02:55;12.20;1.00
4795;DHT22;2411;47.060;15.064;2023-06-04T04:05:23;12.30;1.00
4795;DHT22;2411;47.060;15.064;2023-06-04T04:07:50;12.30;1.00
4795;DHT22;2411;47.060;15.064;2023-06-04T04:10:18;12.30;1.00
4795;DHT22;2411;47.060;15.064;2023-06-04T04:12:45;12.30;1.00
4795;DHT22;2411;47.060;15.064;2023-06-04T04:15:12;12.40;1.00
4795;DHT22;2411;47.060;15.064;2023-06-04T04:17:40;12.40;1.00
4795;DHT22;2411;47.060;15.064;2023-06-04T04:20:08;12.50;1.00
4795;DHT22;2411;47.060;15.064;2023-06-04T04:22:40;12.60;1.00
4795;DHT22;2411;47.060;15.064;2023-06-04T04:25:08;12.60;1.00
4795;DHT22;2411;47.060;15.064;2023-06-04T04:27:36;12.60;1.00
4795;DHT22;2411;47.060;15.064;2023-06-04T04:30:07;12.50;1.00
4795;DHT22;2411;47.060;15.064;2023-06-04T04:32:35;12.70;1.00
4795;DHT22;2411;47.060;15.064;2023-06-04T04:35:06;12.70;1.00
4795;DHT22;2411;47.060;15.064;2023-06-04T04:37:35;12.80;1.00
4795;DHT22;2411;47.060;15.064;2023-06-04T04:40:07;13.00;1.00
4795;DHT22;2411;47.060;15.064;2023-06-04T04:42:36;13.10;1.00
4795;DHT22;2411;47.060;15.064;2023-06-04T04:45:04;13.10;1.00
4795;DHT22;2411;47.060;15.064;2023-06-04T04:47:32;13.20;1.00
4795;DHT22;2411;47.060;15.064;2023-06-04T04:49:59;13.30;1.00
4795;DHT22;2411;47.060;15.064;2023-06-04T04:52:26;13.40;1.00
4795;DHT22;2411;47.060;15.064;2023-06-04T04:54:53;13.40;1.00
4795;DHT22;2411;47.060;15.064;2023-06-04T04:57:24;13.70;1.00
4795;DHT22;2411;47.060;15.064;2023-06-04T04:59:52;13.80;1.00
4795;DHT22;2411;47.060;15.064;2023-06-04T05:02:19;13.90;1.00
4795;DHT22;2411;47.060;15.064;2023-06-04T05:04:46;14.00;1.00
4795;DHT22;2411;47.060;15.064;2023-06-04T05:07:14;14.30;1.00
4795;DHT22;2411;47.060;15.064;2023-06-04T05:09:41;14.50;1.00
4795;DHT22;2411;47.060;15.064;2023-06-04T05:12:08;14.70;1.00
4795;DHT22;2411;47.060;15.064;2023-06-04T05:14:36;14.60;1.00
4795;DHT22;2411;47.060;15.064;2023-06-04T05:17:04;14.60;1.00
4795;DHT22;2411;47.060;15.064;2023-06-04T05:19:31;14.50;1.00
4795;DHT22;2411;47.060;15.064;2023-06-04T05:22:00;14.50;1.00
4795;DHT22;2411;47.060;15.064;2023-06-04T05:24:30;14.50;1.00
4795;DHT22;2411;47.060;15.064;2023-06-04T05:26:58;14.60;1.00
4795;DHT22;2411;47.060;15.064;2023-06-04T05:29:26;14.70;1.00
4795;DHT22;2411;47.060;15.064;2023-06-04T05:31:53;14.60;1.00
4795;DHT22;2411;47.060;15.064;2023-06-04T05:34:20;14.80;1.00
4795;DHT22;2411;47.060;15.064;2023-06-04T05:36:48;14.70;1.00
4795;DHT22;2411;47.060;15.064;2023-06-04T05:39:15;14.70;1.00
4795;DHT22;2411;47.060;15.064;2023-06-04T05:41:43;14.70;1.00
4795;DHT22;2411;47.060;15.064;2023-06-04T05:44:10;14.70;1.00
4795;DHT22;2411;47.060;15.064;2023-06-04T05:46:37;14.70;1.00
4795;DHT22;2411;47.060;15.064;2023-06-04T05:49:05;14.80;1.00
4795;DHT22;2411;47.060;15.064;2023-06-04T05:51:32;14.80;1.00
4795;DHT22;2411;47.060;15.064;2023-06-04T05:53:59;14.80;1.00
4795;DHT22;2411;47.060;15.064;2023-06-04T05:56:27;14.90;1.00
4795;DHT22;2411;47.060;15.064;2023-06-04T05:58:54;15.00;1.00
4795;DHT22;2411;47.060;15.064;2023-06-04T06:01:22;15.00;1.00
4795;DHT22;2411;47.060;15.064;2023-06-04T06:03:49;15.10;1.00
4795;DHT22;2411;47.060;15.064;2023-06-04T06:06:17;15.20;1.00
4795;DHT22;2411;47.060;15.064;2023-06-04T06:08:45;15.30;1.00
4795;DHT22;2411;47.060;15.064;2023-06-04T06:11:12;15.40;1.00
4795;DHT22;2411;47.060;15.064;2023-06-04T06:13:40;15.40;1.00
4795;DHT22;2411;47.060;15.064;2023-06-04T06:16:07;15.50;1.00
4795;DHT22;2411;47.060;15.064;2023-06-04T06:18:35;15.60;1.00
4795;DHT22;2411;47.060;15.064;2023-06-04T06:21:02;15.70;1.00
4795;DHT22;2411;47.060;15.064;2023-06-04T06:23:29;15.60;1.00
4795;DHT22;2411;47.060;15.064;2023-06-04T06:25:57;15.60;1.00
4795;DHT22;2411;47.060;15.064;2023-06-04T06:28:25;15.70;1.00
4795;DHT22;2411;47.060;15.064;2023-06-04T06:30:53;15.80;1.00
4795;DHT22;2411;47.060;15.064;2023-06-04T06:33:20;15.90;1.00
4795;DHT22;2411;47.060;15.064;2023-06-04T06:35:50;16.00;1.00
4795;DHT22;2411;47.060;15.064;2023-06-04T06:38:18;15.90;1.00
4795;DHT22;2411;47.060;15.064;2023-06-04T06:40:45;16.00;1.00
4795;DHT22;2411;47.060;15.064;2023-06-04T06:43:12;16.20;1.00
4795;DHT22;2411;47.060;15.064;2023-06-04T06:45:40;16.10;1.00
4795;DHT22;2411;47.060;15.064;2023-06-04T06:48:07;16.10;1.00
4795;DHT22;2411;47.060;15.064;2023-06-04T06:50:35;16.30;1.00
4795;DHT22;2411;47.060;15.064;2023-06-04T06:53:03;16.50;1.00
4795;DHT22;2411;47.060;15.064;2023-06-04T06:55:30;16.50;1.00
4795;DHT22;2411;47.060;15.064;2023-06-04T06:57:58;16.50;1.00
4795;DHT22;2411;47.060;15.064;2023-06-04T07:00:28;16.60;1.00
4795;DHT22;2411;47.060;15.064;2023-06-04T07:02:55;16.80;1.00
4795;DHT22;2411;47.060;15.064;2023-06-04T07:05:23;16.80;1.00
4795;DHT22;2411;47.060;15.064;2023-06-04T07:07:50;16.90;1.00
4795;DHT22;2411;47.060;15.064;2023-06-04T07:10:19;16.90;1.00
4795;DHT22;2411;47.060;15.064;2023-06-04T07:12:46;17.10;1.00
4795;DHT22;2411;47.060;15.064;2023-06-04T07:15:13;17.00;1.00
4795;DHT22;2411;47.060;15.064;2023-06-04T07:17:41;17.10;1.00
4795;DHT22;2411;47.060;15.064;2023-06-04T07:20:08;17.20;1.00
4795;DHT22;2411;47.060;15.064;2023-06-04T07:22:36;17.20;1.00
4795;DHT22;2411;47.060;15.064;2023-06-04T07:25:04;17.40;1.00
4795;DHT22;2411;47.060;15.064;2023-06-04T07:27:31;17.40;1.00
4795;DHT22;2411;47.060;15.064;2023-06-04T07:29:58;17.70;1.00
4795;DHT22;2411;47.060;15.064;2023-06-04T07:32:26;17.80;1.00
4795;DHT22;2411;47.060;15.064;2023-06-04T07:34:53;17.80;1.00
4795;DHT22;2411;47.060;15.064;2023-06-04T07:37:20;17.90;1.00
4795;DHT22;2411;47.060;15.064;2023-06-04T07:39:48;18.20;1.00
4795;DHT22;2411;47.060;15.064;2023-06-04T07:42:15;18.10;1.00
4795;DHT22;2411;47.060;15.064;2023-06-04T07:44:43;18.30;1.00
4795;DHT22;2411;47.060;15.064;2023-06-04T07:47:10;18.30;1.00
4795;DHT22;2411;47.060;15.064;2023-06-04T07:49:38;18.40;1.00
4795;DHT22;2411;47.060;15.064;2023-06-04T07:52:16;18.30;1.00
4795;DHT22;2411;47.060;15.064;2023-06-04T07:54:46;18.30;1.00
4795;DHT22;2411;47.060;15.064;2023-06-04T07:57:14;18.40;1.00
4795;DHT22;2411;47.060;15.064;2023-06-04T07:59:41;18.50;1.00
4795;DHT22;2411;47.060;15.064;2023-06-04T08:02:08;18.70;1.00
4795;DHT22;2411;47.060;15.064;2023-06-04T08:04:39;18.90;1.00
4795;DHT22;2411;47.060;15.064;2023-06-04T08:07:07;18.70;1.00
4795;DHT22;2411;47.060;15.064;2023-06-04T08:09:34;19.00;1.00
4795;DHT22;2411;47.060;15.064;2023-06-04T08:12:01;18.90;1.00
4795;DHT22;2411;47.060;15.064;2023-06-04T08:14:29;19.00;1.00
4795;DHT22;2411;47.060;15.064;2023-06-04T08:16:56;19.00;1.00
4795;DHT22;2411;47.060;15.064;2023-06-04T08:19:24;19.00;1.00
4795;DHT22;2411;47.060;15.064;2023-06-04T08:21:51;19.10;1.00
4795;DHT22;2411;47.060;15.064;2023-06-04T08:24:23;19.10;1.00
4795;DHT22;2411;47.060;15.064;2023-06-04T08:26:53;19.10;1.00
4795;DHT22;2411;47.060;15.064;2023-06-04T08:29:23;18.80;1.00
4795;DHT22;2411;47.060;15.064;2023-06-04T08:31:51;19.00;1.00
4795;DHT22;2411;47.060;15.064;2023-06-04T08:34:19;19.00;1.00
4795;DHT22;2411;47.060;15.064;2023-06-04T08:36:46;19.10;1.00
4795;DHT22;2411;47.060;15.064;2023-06-04T08:39:14;19.20;1.00
4795;DHT22;2411;47.060;15.064;2023-06-04T08:41:49;19.50;1.00
4795;DHT22;2411;47.060;15.064;2023-06-04T08:44:18;19.80;1.00
4795;DHT22;2411;47.060;15.064;2023-06-04T08:46:50;20.20;1.00
4795;DHT22;2411;47.060;15.064;2023-06-04T08:49:19;20.60;1.00
4795;DHT22;2411;47.060;15.064;2023-06-04T08:51:48;21.10;1.00
4795;DHT22;2411;47.060;15.064;2023-06-04T08:54:16;20.60;1.00
4795;DHT22;2411;47.060;15.064;2023-06-04T08:56:43;20.50;1.00
4795;DHT22;2411;47.060;15.064;2023-06-04T08:59:11;20.40;1.00
4795;DHT22;2411;47.060;15.064;2023-06-04T09:01:41;20.30;1.00
4795;DHT22;2411;47.060;15.064;2023-06-04T09:04:11;20.50;1.00
4795;DHT22;2411;47.060;15.064;2023-06-04T09:06:40;20.90;1.00
4795;DHT22;2411;47.060;15.064;2023-06-04T09:09:10;21.10;1.00
4795;DHT22;2411;47.060;15.064;2023-06-04T09:11:45;21.10;1.00
4795;DHT22;2411;47.060;15.064;2023-06-04T09:14:14;21.10;1.00
4795;DHT22;2411;47.060;15.064;2023-06-04T09:16:47;21.30;1.00
4795;DHT22;2411;47.060;15.064;2023-06-04T09:19:15;21.50;1.00
4795;DHT22;2411;47.060;15.064;2023-06-04T09:22:01;21.70;1.00
4795;DHT22;2411;47.060;15.064;2023-06-04T09:24:47;21.60;1.00
4795;DHT22;2411;47.060;15.064;2023-06-04T09:27:20;21.30;1.00
4795;DHT22;2411;47.060;15.064;2023-06-04T09:29:54;21.80;1.00
4795;DHT22;2411;47.060;15.064;2023-06-04T09:32:26;21.60;1.00
4795;DHT22;2411;47.060;15.064;2023-06-04T09:34:55;21.30;1.00
4795;DHT22;2411;47.060;15.064;2023-06-04T09:37:24;21.30;1.00
4795;DHT22;2411;47.060;15.064;2023-06-04T09:39:55;21.70;1.00
4795;DHT22;2411;47.060;15.064;2023-06-04T09:42:23;21.60;1.00
4795;DHT22;2411;47.060;15.064;2023-06-04T09:44:51;21.40;1.00
4795;DHT22;2411;47.060;15.064;2023-06-04T09:47:18;21.60;1.00
4795;DHT22;2411;47.060;15.064;2023-06-04T09:49:47;21.70;1.00
4795;DHT22;2411;47.060;15.064;2023-06-04T09:52:14;21.60;1.00
4795;DHT22;2411;47.060;15.064;2023-06-04T09:54:42;21.20;1.00
4795;DHT22;2411;47.060;15.064;2023-06-04T09:57:18;21.10;1.00
4795;DHT22;2411;47.060;15.064;2023-06-04T09:59:50;20.90;1.00
4795;DHT22;2411;47.060;15.064;2023-06-04T10:02:20;20.90;1.00
4795;DHT22;2411;47.060;15.064;2023-06-04T10:04:54;20.90;1.00
4795;DHT22;2411;47.060;15.064;2023-06-04T10:07:26;20.90;1.00
4795;DHT22;2411;47.060;15.064;2023-06-04T10:09:54;21.20;1.00
4795;DHT22;2411;47.060;15.064;2023-06-04T10:12:26;21.90;1.00
4795;DHT22;2411;47.060;15.064;2023-06-04T10:15:02;22.00;1.00
4795;DHT22;2411;47.060;15.064;2023-06-04T10:17:33;22.00;1.00
4795;DHT22;2411;47.060;15.064;2023-06-04T10:20:02;22.10;1.00
4795;DHT22;2411;47.060;15.064;2023-06-04T10:22:32;22.40;1.00
4795;DHT22;2411;47.060;15.064;2023-06-04T10:25:01;22.50;1.00
4795;DHT22;2411;47.060;15.064;2023-06-04T10:27:31;22.60;1.00
4795;DHT22;2411;47.060;15.064;2023-06-04T10:29:59;22.60;1.00
4795;DHT22;2411;47.060;15.064;2023-06-04T10:32:28;22.80;1.00
4795;DHT22;2411;47.060;15.064;2023-06-04T10:34:56;22.80;1.00
4795;DHT22;2411;47.060;15.064;2023-06-04T10:37:26;22.70;1.00
4795;DHT22;2411;47.060;15.064;2023-06-04T10:39:57;22.80;1.00
4795;DHT22;2411;47.060;15.064;2023-06-04T10:42:25;22.80;1.00
4795;DHT22;2411;47.060;15.064;2023-06-04T10:44:54;22.60;1.00
4795;DHT22;2411;47.060;15.064;2023-06-04T10:47:28;22.50;1.00
4795;DHT22;2411;47.060;15.064;2023-06-04T10:50:12;22.60;1.00
4795;DHT22;2411;47.060;15.064;2023-06-04T10:52:52;22.40;1.00
4795;DHT22;2411;47.060;15.064;2023-06-04T10:55:19;22.20;1.00
4795;DHT22;2411;47.060;15.064;2023-06-04T10:57:57;22.10;1.00
4795;DHT22;2411;47.060;15.064;2023-06-04T11:00:37;22.20;1.00
4795;DHT22;2411;47.060;15.064;2023-06-04T11:03:10;22.30;1.00
4795;DHT22;2411;47.060;15.064;2023-06-04T11:05:46;22.10;1.00
4795;DHT22;2411;47.060;15.064;2023-06-04T11:08:14;22.30;1.00
4795;DHT22;2411;47.060;15.064;2023-06-04T11:10:44;22.40;1.00
4795;DHT22;2411;47.060;15.064;2023-06-04T11:13:12;22.30;1.00
4795;DHT22;2411;47.060;15.064;2023-06-04T11:15:46;22.10;1.00
4795;DHT22;2411;47.060;15.064;2023-06-04T11:18:18;21.90;1.00
4795;DHT22;2411;47.060;15.064;2023-06-04T11:20:58;22.00;1.00
4795;DHT22;2411;47.060;15.064;2023-06-04T11:23:26;22.10;1.00
4795;DHT22;2411;47.060;15.064;2023-06-04T11:25:53;22.30;1.00
4795;DHT22;2411;47.060;15.064;2023-06-04T11:28:21;22.20;1.00
4795;DHT22;2411;47.060;15.064;2023-06-04T11:31:01;21.90;1.00
4795;DHT22;2411;47.060;15.064;2023-06-04T11:33:46;22.30;1.00
4795;DHT22;2411;47.060;15.064;2023-06-04T11:39:01;21.90;1.00
4795;DHT22;2411;47.060;15.064;2023-06-04T11:41:30;22.00;1.00
4795;DHT22;2411;47.060;15.064;2023-06-04T11:44:02;22.10;1.00
4795;DHT22;2411;47.060;15.064;2023-06-04T11:46:40;22.10;1.00
4795;DHT22;2411;47.060;15.064;2023-06-04T11:49:07;22.10;1.00
4795;DHT22;2411;47.060;15.064;2023-06-04T11:51:35;22.10;1.00
4795;DHT22;2411;47.060;15.064;2023-06-04T11:54:03;21.90;1.00
4795;DHT22;2411;47.060;15.064;2023-06-04T11:56:30;21.90;1.00
4795;DHT22;2411;47.060;15.064;2023-06-04T11:58:58;21.80;1.00
4795;DHT22;2411;47.060;15.064;2023-06-04T12:01:26;21.80;1.00
4795;DHT22;2411;47.060;15.064;2023-06-04T12:03:56;21.80;1.00
4795;DHT22;2411;47.060;15.064;2023-06-04T12:06:23;21.50;1.00
4795;DHT22;2411;47.060;15.064;2023-06-04T12:08:53;21.30;1.00
4795;DHT22;2411;47.060;15.064;2023-06-04T12:14:05;21.10;1.00
4795;DHT22;2411;47.060;15.064;2023-06-04T12:16:34;21.10;1.00
4795;DHT22;2411;47.060;15.064;2023-06-04T12:19:12;21.00;1.00
4795;DHT22;2411;47.060;15.064;2023-06-04T12:21:39;20.70;1.00
4795;DHT22;2411;47.060;15.064;2023-06-04T12:24:12;20.50;1.00
4795;DHT22;2411;47.060;15.064;2023-06-04T12:26:42;20.30;1.00
4795;DHT22;2411;47.060;15.064;2023-06-04T12:29:15;20.10;1.00
4795;DHT22;2411;47.060;15.064;2023-06-04T12:31:44;20.00;1.00
4795;DHT22;2411;47.060;15.064;2023-06-04T12:34:13;19.90;1.00
4795;DHT22;2411;47.060;15.064;2023-06-04T12:36:41;19.50;1.00
4795;DHT22;2411;47.060;15.064;2023-06-04T12:39:10;19.30;1.00
4795;DHT22;2411;47.060;15.064;2023-06-04T12:41:37;19.20;1.00
4795;DHT22;2411;47.060;15.064;2023-06-04T12:44:07;19.10;1.00
4795;DHT22;2411;47.060;15.064;2023-06-04T12:46:34;18.80;1.00
4795;DHT22;2411;47.060;15.064;2023-06-04T12:49:02;18.70;1.00
4795;DHT22;2411;47.060;15.064;2023-06-04T12:51:29;18.70;1.00
4795;DHT22;2411;47.060;15.064;2023-06-04T12:53:57;18.80;1.00
4795;DHT22;2411;47.060;15.064;2023-06-04T12:56:25;18.80;1.00
4795;DHT22;2411;47.060;15.064;2023-06-04T12:58:53;18.80;1.00
4795;DHT22;2411;47.060;15.064;2023-06-04T13:01:20;19.00;1.00
4795;DHT22;2411;47.060;15.064;2023-06-04T13:03:48;19.20;1.00
4795;DHT22;2411;47.060;15.064;2023-06-04T13:06:15;19.30;1.00
4795;DHT22;2411;47.060;15.064;2023-06-04T13:08:43;19.30;1.00
4795;DHT22;2411;47.060;15.064;2023-06-04T13:11:10;19.50;1.00
4795;DHT22;2411;47.060;15.064;2023-06-04T13:13:39;19.50;1.00
4795;DHT22;2411;47.060;15.064;2023-06-04T13:16:07;19.60;1.00
4795;DHT22;2411;47.060;15.064;2023-06-04T13:18:35;19.80;1.00
4795;DHT22;2411;47.060;15.064;2023-06-04T13:21:03;19.90;1.00
4795;DHT22;2411;47.060;15.064;2023-06-04T13:23:30;20.10;1.00
4795;DHT22;2411;47.060;15.064;2023-06-04T13:26:15;20.00;1.00
4795;DHT22;2411;47.060;15.064;2023-06-04T13:28:43;19.80;1.00
4795;DHT22;2411;47.060;15.064;2023-06-04T13:31:10;20.00;1.00
4795;DHT22;2411;47.060;15.064;2023-06-04T13:33:38;19.60;1.00
4795;DHT22;2411;47.060;15.064;2023-06-04T13:36:06;19.60;1.00
4795;DHT22;2411;47.060;15.064;2023-06-04T13:38:33;19.50;1.00
4795;DHT22;2411;47.060;15.064;2023-06-04T13:41:01;19.30;1.00
4795;DHT22;2411;47.060;15.064;2023-06-04T13:43:28;19.10;1.00
4795;DHT22;2411;47.060;15.064;2023-06-04T13:45:56;19.00;1.00
4795;DHT22;2411;47.060;15.064;2023-06-04T13:48:23;19.00;1.00
4795;DHT22;2411;47.060;15.064;2023-06-04T13:50:50;18.80;1.00
4795;DHT22;2411;47.060;15.064;2023-06-04T13:53:18;18.60;1.00
4795;DHT22;2411;47.060;15.064;2023-06-04T13:55:45;18.80;1.00
4795;DHT22;2411;47.060;15.064;2023-06-04T13:58:13;18.60;1.00
4795;DHT22;2411;47.060;15.064;2023-06-04T14:00:42;18.30;1.00
4795;DHT22;2411;47.060;15.064;2023-06-04T14:03:09;18.30;1.00
4795;DHT22;2411;47.060;15.064;2023-06-04T14:05:37;18.40;1.00
4795;DHT22;2411;47.060;15.064;2023-06-04T14:08:04;18.40;1.00
4795;DHT22;2411;47.060;15.064;2023-06-04T14:10:32;18.50;1.00
4795;DHT22;2411;47.060;15.064;2023-06-04T14:12:59;18.80;1.00
4795;DHT22;2411;47.060;15.064;2023-06-04T14:15:28;19.10;1.00
4795;DHT22;2411;47.060;15.064;2023-06-04T14:17:55;19.30;15.20
4795;DHT22;2411;47.060;15.064;2023-06-04T14:20:23;19.30;3.90
4795;DHT22;2411;47.060;15.064;2023-06-04T14:22:50;19.10;3.60
4795;DHT22;2411;47.060;15.064;2023-06-04T14:25:17;19.30;2.50
4795;DHT22;2411;47.060;15.064;2023-06-04T14:27:45;19.10;3.40
4795;DHT22;2411;47.060;15.064;2023-06-04T14:30:12;19.00;3.50
4795;DHT22;2411;47.060;15.064;2023-06-04T14:32:39;18.90;4.50
4795;DHT22;2411;47.060;15.064;2023-06-04T14:35:07;18.90;4.50
4795;DHT22;2411;47.060;15.064;2023-06-04T14:37:35;18.80;5.80
4795;DHT22;2411;47.060;15.064;2023-06-04T14:40:02;18.90;6.50
4795;DHT22;2411;47.060;15.064;2023-06-04T14:42:30;18.80;4.40
4795;DHT22;2411;47.060;15.064;2023-06-04T14:44:57;18.80;4.30
4795;DHT22;2411;47.060;15.064;2023-06-04T14:47:24;18.80;5.70
4795;DHT22;2411;47.060;15.064;2023-06-04T14:49:51;18.90;6.30
4795;DHT22;2411;47.060;15.064;2023-06-04T14:52:19;18.80;7.90
4795;DHT22;2411;47.060;15.064;2023-06-04T14:54:49;18.80;5.40
4795;DHT22;2411;47.060;15.064;2023-06-04T14:57:19;18.60;2.30
4795;DHT22;2411;47.060;15.064;2023-06-04T14:59:48;18.40;4.70
4795;DHT22;2411;47.060;15.064;2023-06-04T15:02:15;18.30;3.40
4795;DHT22;2411;47.060;15.064;2023-06-04T15:04:47;18.10;5.20
4795;DHT22;2411;47.060;15.064;2023-06-04T15:07:14;18.10;5.30
4795;DHT22;2411;47.060;15.064;2023-06-04T15:09:41;18.20;6.10
4795;DHT22;2411;47.060;15.064;2023-06-04T15:12:09;18.30;2.70
4795;DHT22;2411;47.060;15.064;2023-06-04T15:14:36;18.30;2.50
4795;DHT22;2411;47.060;15.064;2023-06-04T15:17:04;18.40;6.30
4795;DHT22;2411;47.060;15.064;2023-06-04T15:19:32;18.40;5.20
4795;DHT22;2411;47.060;15.064;2023-06-04T15:22:00;18.40;4.10
4795;DHT22;2411;47.060;15.064;2023-06-04T15:24:27;18.40;4.60
4795;DHT22;2411;47.060;15.064;2023-06-04T15:26:54;18.40;3.70
4795;DHT22;2411;47.060;15.064;2023-06-04T15:29:22;18.40;6.00
4795;DHT22;2411;47.060;15.064;2023-06-04T15:31:49;18.30;2.30
4795;DHT22;2411;47.060;15.064;2023-06-04T15:34:17;18.30;1.00
4795;DHT22;2411;47.060;15.064;2023-06-04T15:36:45;18.30;1.00
4795;DHT22;2411;47.060;15.064;2023-06-04T15:39:13;18.30;2.90
4795;DHT22;2411;47.060;15.064;2023-06-04T15:41:41;18.20;3.70
4795;DHT22;2411;47.060;15.064;2023-06-04T15:44:08;18.10;3.40
4795;DHT22;2411;47.060;15.064;2023-06-04T15:46:36;18.10;3.50
4795;DHT22;2411;47.060;15.064;2023-06-04T15:49:05;18.10;5.10
4795;DHT22;2411;47.060;15.064;2023-06-04T15:51:34;18.00;3.90
4795;DHT22;2411;47.060;15.064;2023-06-04T15:54:02;18.10;3.80
4795;DHT22;2411;47.060;15.064;2023-06-04T15:56:31;18.00;2.20
4795;DHT22;2411;47.060;15.064;2023-06-04T15:58:59;17.90;2.40
4795;DHT22;2411;47.060;15.064;2023-06-04T16:01:27;17.80;3.30
4795;DHT22;2411;47.060;15.064;2023-06-04T16:03:55;17.70;2.20
4795;DHT22;2411;47.060;15.064;2023-06-04T16:06:22;17.80;8.00
4795;DHT22;2411;47.060;15.064;2023-06-04T16:08:49;17.80;7.10
4795;DHT22;2411;47.060;15.064;2023-06-04T16:11:17;17.80;5.40
4795;DHT22;2411;47.060;15.064;2023-06-04T16:13:44;17.70;7.50
4795;DHT22;2411;47.060;15.064;2023-06-04T16:16:31;17.80;5.70
4795;DHT22;2411;47.060;15.064;2023-06-04T16:18:59;17.80;5.10
4795;DHT22;2411;47.060;15.064;2023-06-04T16:21:26;17.80;6.70
4795;DHT22;2411;47.060;15.064;2023-06-04T16:23:53;17.80;4.10
4795;DHT22;2411;47.060;15.064;2023-06-04T16:26:21;17.80;4.80
4795;DHT22;2411;47.060;15.064;2023-06-04T16:28:49;17.70;3.70